Time;durP1;ratioP1;P1;durP2;ratioP2;P2;SDS_P1;SDS_P2;PMS_P1;PMS_P2;Temp;Humidity;BMP_temperature;BMP_pressure;BME280_temperature;BME280_humidity;BME280_pressure;Samples;Min_cycle;Max_cycle;Signal;HPM_P1;HPM_P2
2021/11/15 00:01:50;;;;;;;42.47;33.47;;;;;;;;;;4993276;28;20227;-87
2021/11/15 00:04:20;;;;;;;28.80;24.60;;;;;;;;;;4993404;28;20279;-87
2021/11/15 00:06:47;;;;;;;29.97;24.47;;;;;;;;;;4993572;28;20207;-88
2021/11/15 00:09:15;;;;;;;25.77;22.60;;;;;;;;;;4993013;28;20747;-87
2021/11/15 00:11:42;;;;;;;26.40;22.03;;;;;;;;;;4993490;28;20254;-88
2021/11/15 00:14:11;;;;;;;29.10;21.70;;;;;;;;;;4993398;28;20857;-88
2021/11/15 00:16:38;;;;;;;25.07;21.23;;;;;;;;;;4993611;28;20594;-88
2021/11/15 00:19:06;;;;;;;27.37;21.23;;;;;;;;;;4993209;28;20200;-87
2021/11/15 00:21:34;;;;;;;25.43;22.03;;;;;;;;;;4993169;28;20216;-87
2021/11/15 00:24:01;;;;;;;28.77;21.53;;;;;;;;;;4992376;28;20240;-87
2021/11/15 00:26:29;;;;;;;26.90;21.33;;;;;;;;;;4992997;28;20290;-88
2021/11/15 00:28:57;;;;;;;26.13;22.67;;;;;;;;;;4993011;28;20196;-88
2021/11/15 00:31:26;;;;;;;28.73;22.43;;;;;;;;;;4993475;28;20204;-88
2021/11/15 00:33:54;;;;;;;32.57;24.70;;;;;;;;;;4993257;28;20203;-88
2021/11/15 00:36:22;;;;;;;40.57;29.00;;;;;;;;;;4992998;28;20711;-88
2021/11/15 00:38:50;;;;;;;74.50;47.40;;;;;;;;;;4993079;28;20359;-88
2021/11/15 00:41:18;;;;;;;60.10;40.80;;;;;;;;;;4993051;28;20240;-88
2021/11/15 00:43:45;;;;;;;41.63;30.97;;;;;;;;;;4993035;28;20287;-87
2021/11/15 00:46:12;;;;;;;31.63;24.40;;;;;;;;;;4992923;28;20206;-88
2021/11/15 00:48:41;;;;;;;36.17;26.17;;;;;;;;;;4993049;28;20208;-88
2021/11/15 00:51:08;;;;;;;31.40;23.33;;;;;;;;;;4992845;28;20196;-87
2021/11/15 00:53:35;;;;;;;29.57;22.00;;;;;;;;;;4993196;28;20580;-88
2021/11/15 00:56:03;;;;;;;32.07;23.07;;;;;;;;;;4992852;28;20227;-88
2021/11/15 00:58:30;;;;;;;26.47;21.30;;;;;;;;;;4993046;28;20587;-88
2021/11/15 01:00:57;;;;;;;26.07;20.80;;;;;;;;;;4993128;28;20196;-87
2021/11/15 01:03:25;;;;;;;25.50;20.57;;;;;;;;;;4992509;28;20317;-87
2021/11/15 01:05:54;;;;;;;27.53;22.47;;;;;;;;;;4992960;28;20208;-87
2021/11/15 01:08:21;;;;;;;24.90;20.97;;;;;;;;;;4992505;28;20242;-87
2021/11/15 01:10:52;;;;;;;25.87;22.20;;;;;;;;;;4992549;28;20279;-87
2021/11/15 01:13:19;;;;;;;29.93;22.17;;;;;;;;;;4992883;28;20262;-88
2021/11/15 01:15:47;;;;;;;26.23;21.90;;;;;;;;;;4992530;28;20192;-88
2021/11/15 01:18:14;;;;;;;29.47;25.10;;;;;;;;;;4992726;28;20201;-88
2021/11/15 01:20:42;;;;;;;29.80;23.23;;;;;;;;;;4992610;28;20287;-88
2021/11/15 01:23:11;;;;;;;31.10;21.63;;;;;;;;;;4992417;28;20311;-87
2021/11/15 01:25:39;;;;;;;30.93;23.17;;;;;;;;;;4992668;28;20289;-87
2021/11/15 01:28:07;;;;;;;26.70;23.13;;;;;;;;;;4992713;28;20726;-88
2021/11/15 01:30:35;;;;;;;25.37;21.20;;;;;;;;;;4992774;28;20280;-88
2021/11/15 01:33:03;;;;;;;25.50;22.70;;;;;;;;;;4992738;28;20279;-87
2021/11/15 01:35:31;;;;;;;29.30;22.43;;;;;;;;;;4995402;28;20243;-88
2021/11/15 01:37:58;;;;;;;26.80;21.53;;;;;;;;;;4996374;28;20215;-88
2021/11/15 01:40:29;;;;;;;25.20;19.47;;;;;;;;;;4996421;28;20204;-88
2021/11/15 01:42:58;;;;;;;26.93;21.23;;;;;;;;;;4996046;28;20250;-88
2021/11/15 01:45:27;;;;;;;26.13;21.73;;;;;;;;;;4996286;28;20196;-88
2021/11/15 01:47:57;;;;;;;24.17;20.67;;;;;;;;;;4996177;28;20677;-88
2021/11/15 01:50:26;;;;;;;27.13;21.23;;;;;;;;;;4995746;28;20236;-88
2021/11/15 01:52:54;;;;;;;24.33;20.63;;;;;;;;;;4996543;28;20197;-88
2021/11/15 01:55:23;;;;;;;26.33;20.27;;;;;;;;;;4996069;28;20228;-88
2021/11/15 01:57:52;;;;;;;24.97;20.00;;;;;;;;;;4996030;28;20211;-88
2021/11/15 02:00:22;;;;;;;23.43;19.27;;;;;;;;;;4996009;28;20227;-87
2021/11/15 02:02:50;;;;;;;27.90;21.33;;;;;;;;;;4995779;28;20800;-88
2021/11/15 02:05:17;;;;;;;26.03;21.83;;;;;;;;;;4995858;28;20223;-88
2021/11/15 02:07:46;;;;;;;24.13;20.10;;;;;;;;;;4995599;28;20236;-87
2021/11/15 02:10:14;;;;;;;25.23;19.33;;;;;;;;;;4995761;28;20291;-88
2021/11/15 02:12:41;;;;;;;24.33;19.67;;;;;;;;;;4995693;28;20661;-88
2021/11/15 02:15:12;;;;;;;28.77;22.37;;;;;;;;;;4995634;28;20661;-88
2021/11/15 02:17:40;;;;;;;26.73;21.30;;;;;;;;;;4995502;28;20271;-88
2021/11/15 02:20:11;;;;;;;25.10;21.03;;;;;;;;;;4995632;28;20602;-88
2021/11/15 02:22:40;;;;;;;26.60;21.87;;;;;;;;;;4995610;28;20299;-88
2021/11/15 02:25:08;;;;;;;24.57;20.40;;;;;;;;;;4995295;28;20200;-88
2021/11/15 02:27:36;;;;;;;30.40;21.17;;;;;;;;;;4995602;28;20638;-88
2021/11/15 02:30:06;;;;;;;25.57;20.87;;;;;;;;;;4995280;28;20201;-87
2021/11/15 02:32:33;;;;;;;25.63;20.17;;;;;;;;;;4995288;28;20196;-88
2021/11/15 02:35:01;;;;;;;24.03;20.60;;;;;;;;;;4995265;28;20279;-87
2021/11/15 02:37:28;;;;;;;25.80;20.83;;;;;;;;;;4995141;28;20208;-87
2021/11/15 02:39:57;;;;;;;23.87;20.23;;;;;;;;;;4995003;28;20202;-87
2021/11/15 02:42:25;;;;;;;26.90;21.67;;;;;;;;;;4994882;28;20312;-87
2021/11/15 02:44:53;;;;;;;22.80;18.73;;;;;;;;;;4994924;28;20295;-88
2021/11/15 02:47:20;;;;;;;23.13;19.37;;;;;;;;;;4994417;28;20204;-87
2021/11/15 02:49:48;;;;;;;23.50;18.83;;;;;;;;;;4994982;28;20735;-89
2021/11/15 02:52:17;;;;;;;25.53;18.63;;;;;;;;;;4995052;28;20200;-87
2021/11/15 02:54:44;;;;;;;23.37;19.63;;;;;;;;;;4994829;28;20239;-87
2021/11/15 02:57:16;;;;;;;22.43;18.63;;;;;;;;;;4994703;28;20298;-87
2021/11/15 02:59:43;;;;;;;25.03;20.40;;;;;;;;;;4994741;28;20234;-88
2021/11/15 03:02:11;;;;;;;23.17;18.03;;;;;;;;;;4994592;28;20224;-87
2021/11/15 03:04:39;;;;;;;20.23;18.10;;;;;;;;;;4994597;28;20207;-88
2021/11/15 03:07:06;;;;;;;20.53;18.40;;;;;;;;;;4994664;28;20223;-88
2021/11/15 03:09:34;;;;;;;19.97;17.87;;;;;;;;;;4994507;28;20189;-88
2021/11/15 03:12:01;;;;;;;24.57;19.47;;;;;;;;;;4994855;28;20204;-88
2021/11/15 03:14:29;;;;;;;23.13;19.20;;;;;;;;;;4994748;28;20640;-87
2021/11/15 03:16:57;;;;;;;22.97;18.87;;;;;;;;;;4994336;28;20200;-87
2021/11/15 03:19:24;;;;;;;21.80;19.03;;;;;;;;;;4994426;28;20726;-88
2021/11/15 03:21:51;;;;;;;23.20;19.27;;;;;;;;;;4994203;28;20211;-88
2021/11/15 03:24:19;;;;;;;22.83;18.43;;;;;;;;;;4994293;28;20281;-86
2021/11/15 03:26:46;;;;;;;26.20;19.03;;;;;;;;;;4994212;28;20204;-88
2021/11/15 03:29:13;;;;;;;19.47;17.37;;;;;;;;;;4994125;28;20205;-88
2021/11/15 03:31:43;;;;;;;22.70;19.53;;;;;;;;;;4994304;28;20196;-88
2021/11/15 03:34:12;;;;;;;30.83;20.17;;;;;;;;;;4994302;28;20189;-88
2021/11/15 03:36:41;;;;;;;21.20;18.37;;;;;;;;;;4994480;28;20239;-87
2021/11/15 03:39:10;;;;;;;22.03;18.80;;;;;;;;;;4994371;28;20291;-88
2021/11/15 03:41:39;;;;;;;22.47;20.17;;;;;;;;;;4994292;28;20201;-87
2021/11/15 03:44:07;;;;;;;23.40;19.53;;;;;;;;;;4993922;28;20234;-87
2021/11/15 03:46:34;;;;;;;26.57;19.67;;;;;;;;;;4994022;28;20204;-88
2021/11/15 03:49:03;;;;;;;21.90;18.97;;;;;;;;;;4994277;28;20254;-88
2021/11/15 03:51:30;;;;;;;23.03;20.07;;;;;;;;;;4994000;28;20203;-88
2021/11/15 03:53:58;;;;;;;29.63;20.70;;;;;;;;;;4993997;28;20206;-88
2021/11/15 03:56:27;;;;;;;24.83;21.77;;;;;;;;;;4994068;28;20279;-88
2021/11/15 03:58:56;;;;;;;24.20;21.60;;;;;;;;;;4993706;28;20216;-88
2021/11/15 04:01:26;;;;;;;22.97;19.80;;;;;;;;;;4993652;28;20200;-88
2021/11/15 04:03:54;;;;;;;21.50;18.07;;;;;;;;;;4993404;28;20220;-89
2021/11/15 04:06:27;;;;;;;21.93;19.53;;;;;;;;;;4993927;28;20205;-88
2021/11/15 04:08:56;;;;;;;37.23;26.33;;;;;;;;;;4993285;28;20235;-88
2021/11/15 04:11:25;;;;;;;64.57;39.07;;;;;;;;;;4993709;28;20232;-88
2021/11/15 04:13:57;;;;;;;57.87;38.10;;;;;;;;;;4993444;28;20200;-88
2021/11/15 04:16:24;;;;;;;52.90;36.03;;;;;;;;;;4993489;28;20635;-88
2021/11/15 04:18:54;;;;;;;49.50;35.23;;;;;;;;;;4993393;28;20563;-88
2021/11/15 04:21:24;;;;;;;47.10;33.87;;;;;;;;;;4993297;28;20291;-88
2021/11/15 04:23:51;;;;;;;46.63;34.63;;;;;;;;;;4993176;28;20314;-87
2021/11/15 04:26:18;;;;;;;45.73;30.80;;;;;;;;;;4993505;28;20192;-88
2021/11/15 04:28:47;;;;;;;47.23;36.17;;;;;;;;;;4992928;28;20200;-88
2021/11/15 04:31:14;;;;;;;53.07;40.80;;;;;;;;;;4993700;28;20208;-87
2021/11/15 04:33:42;;;;;;;56.97;42.47;;;;;;;;;;4993069;28;20587;-88
2021/11/15 04:36:09;;;;;;;54.10;42.27;;;;;;;;;;4957032;28;20213;-89
2021/11/15 04:38:38;;;;;;;48.87;39.17;;;;;;;;;;4954691;28;20227;-89
2021/11/15 04:41:05;;;;;;;35.47;29.30;;;;;;;;;;4954645;29;20695;-88
2021/11/15 04:43:32;;;;;;;28.40;21.90;;;;;;;;;;4957057;28;20319;-89
2021/11/15 04:45:59;;;;;;;22.93;20.00;;;;;;;;;;4973949;28;20219;-89
2021/11/15 04:48:27;;;;;;;27.33;23.13;;;;;;;;;;4973632;28;20199;-89
2021/11/15 04:50:55;;;;;;;30.20;23.87;;;;;;;;;;4974000;28;20856;-89
2021/11/15 04:53:22;;;;;;;30.37;24.63;;;;;;;;;;4973384;28;20236;-89
2021/11/15 04:55:51;;;;;;;34.53;27.53;;;;;;;;;;4973984;28;20887;-88
2021/11/15 04:58:18;;;;;;;32.57;29.07;;;;;;;;;;4974072;28;20203;-89
2021/11/15 05:00:46;;;;;;;27.03;23.03;;;;;;;;;;4973467;28;20673;-89
2021/11/15 05:03:13;;;;;;;23.23;20.73;;;;;;;;;;4973967;28;20225;-89
2021/11/15 05:05:42;;;;;;;25.07;21.23;;;;;;;;;;4973960;28;20197;-90
2021/11/15 05:08:09;;;;;;;25.40;22.80;;;;;;;;;;4973499;28;20237;-89
2021/11/15 05:10:37;;;;;;;26.60;23.47;;;;;;;;;;4976774;28;20204;-89
2021/11/15 05:13:06;;;;;;;29.10;24.70;;;;;;;;;;4977274;28;20197;-88
2021/11/15 05:15:33;;;;;;;34.50;26.30;;;;;;;;;;4977450;28;20212;-89
2021/11/15 05:18:00;;;;;;;34.77;30.90;;;;;;;;;;4977565;28;20205;-89
2021/11/15 05:20:28;;;;;;;36.80;32.80;;;;;;;;;;4977555;28;20217;-89
2021/11/15 05:22:55;;;;;;;42.03;33.13;;;;;;;;;;4977475;28;20329;-89
2021/11/15 05:25:25;;;;;;;37.90;31.00;;;;;;;;;;4977514;28;20292;-89
2021/11/15 05:27:53;;;;;;;31.03;27.57;;;;;;;;;;4977445;28;20196;-88
2021/11/15 05:30:22;;;;;;;33.77;26.27;;;;;;;;;;4977646;28;20637;-89
2021/11/15 05:32:51;;;;;;;33.97;26.37;;;;;;;;;;4977270;28;20708;-89
2021/11/15 05:35:19;;;;;;;28.30;25.27;;;;;;;;;;4977313;28;20299;-89
2021/11/15 05:37:48;;;;;;;27.47;24.47;;;;;;;;;;4977198;28;20200;-89
2021/11/15 05:40:16;;;;;;;26.80;21.23;;;;;;;;;;4977182;28;20209;-89
2021/11/15 05:42:43;;;;;;;25.80;21.20;;;;;;;;;;4977055;28;20201;-89
2021/11/15 05:45:11;;;;;;;28.93;25.03;;;;;;;;;;4977116;28;20207;-90
2021/11/15 05:47:40;;;;;;;34.57;24.60;;;;;;;;;;4977281;28;20209;-90
2021/11/15 05:50:08;;;;;;;31.83;25.00;;;;;;;;;;4977168;28;20197;-89
2021/11/15 05:52:40;;;;;;;27.07;23.87;;;;;;;;;;4977293;28;20204;-89
2021/11/15 05:55:08;;;;;;;32.53;24.83;;;;;;;;;;4976946;28;20189;-89
2021/11/15 05:57:36;;;;;;;31.73;25.43;;;;;;;;;;4976835;28;20208;-89
2021/11/15 06:00:05;;;;;;;33.63;26.33;;;;;;;;;;4977022;28;20200;-89
2021/11/15 06:02:32;;;;;;;31.27;27.47;;;;;;;;;;4977120;28;20211;-89
2021/11/15 06:05:01;;;;;;;32.07;27.80;;;;;;;;;;4976623;28;20311;-89
2021/11/15 06:07:28;;;;;;;36.33;30.13;;;;;;;;;;4976677;28;20717;-89
2021/11/15 06:09:56;;;;;;;32.30;26.27;;;;;;;;;;4976854;28;20209;-89
2021/11/15 06:12:23;;;;;;;29.50;23.87;;;;;;;;;;4976802;28;20240;-90
2021/11/15 06:14:50;;;;;;;28.03;22.60;;;;;;;;;;4976873;28;20222;-90
2021/11/15 06:17:18;;;;;;;30.70;22.83;;;;;;;;;;4976974;28;20227;-88
2021/11/15 06:19:45;;;;;;;24.10;20.97;;;;;;;;;;4976793;28;20209;-89
2021/11/15 06:22:14;;;;;;;22.83;20.10;;;;;;;;;;4975400;28;20197;-89
2021/11/15 06:24:47;;;;;;;34.70;28.17;;;;;;;;;;4976319;28;20229;-89
2021/11/15 06:27:14;;;;;;;31.47;23.73;;;;;;;;;;4976655;28;20201;-89
2021/11/15 06:29:41;;;;;;;30.27;24.83;;;;;;;;;;4976451;28;20220;-89
2021/11/15 06:32:09;;;;;;;28.13;23.20;;;;;;;;;;4976694;28;20213;-90
2021/11/15 06:34:37;;;;;;;24.27;21.40;;;;;;;;;;4976364;28;20201;-89
2021/11/15 06:37:05;;;;;;;26.07;20.30;;;;;;;;;;4976289;28;20197;-89
2021/11/15 06:39:34;;;;;;;27.63;23.30;;;;;;;;;;4976291;28;20581;-89
2021/11/15 06:42:01;;;;;;;25.07;20.17;;;;;;;;;;4976219;28;20300;-89
2021/11/15 06:44:31;;;;;;;31.90;24.40;;;;;;;;;;4975956;28;20225;-90
2021/11/15 06:46:59;;;;;;;25.60;21.37;;;;;;;;;;4976293;28;20193;-89
2021/11/15 06:49:26;;;;;;;23.53;21.00;;;;;;;;;;4976244;28;20201;-89
2021/11/15 06:51:54;;;;;;;23.67;18.63;;;;;;;;;;4975894;28;20197;-89
2021/11/15 06:54:21;;;;;;;20.03;17.20;;;;;;;;;;4975902;28;20211;-89
2021/11/15 06:56:50;;;;;;;24.80;18.87;;;;;;;;;;4975893;28;20205;-89
2021/11/15 06:59:17;;;;;;;24.13;19.53;;;;;;;;;;4975756;28;20208;-89
2021/11/15 07:01:44;;;;;;;24.50;18.53;;;;;;;;;;4975778;28;20201;-90
2021/11/15 07:04:11;;;;;;;22.43;19.77;;;;;;;;;;4975831;28;20225;-89
2021/11/15 07:06:41;;;;;;;21.33;19.23;;;;;;;;;;4975969;28;20256;-90
2021/11/15 07:09:09;;;;;;;24.23;20.20;;;;;;;;;;4975614;28;20229;-90
2021/11/15 07:11:36;;;;;;;23.43;19.93;;;;;;;;;;4975692;28;20211;-89
2021/11/15 07:14:06;;;;;;;21.40;18.57;;;;;;;;;;4975797;28;20220;-90
2021/11/15 07:16:33;;;;;;;33.13;25.40;;;;;;;;;;4975841;28;20204;-90
2021/11/15 07:19:02;;;;;;;27.00;20.40;;;;;;;;;;4975543;28;20208;-90
2021/11/15 07:21:30;;;;;;;20.67;18.20;;;;;;;;;;4975341;28;20197;-90
2021/11/15 07:23:57;;;;;;;22.77;20.03;;;;;;;;;;4974398;28;20229;-90
2021/11/15 07:26:25;;;;;;;22.00;19.50;;;;;;;;;;4975217;28;20669;-90
2021/11/15 07:28:52;;;;;;;28.73;23.07;;;;;;;;;;4975236;28;20238;-89
2021/11/15 07:31:22;;;;;;;31.60;22.57;;;;;;;;;;4975444;28;20209;-89
2021/11/15 07:33:50;;;;;;;25.00;22.30;;;;;;;;;;4974946;28;20193;-89
2021/11/15 07:36:17;;;;;;;21.57;19.27;;;;;;;;;;4975166;28;20225;-89
2021/11/15 07:38:45;;;;;;;21.10;18.93;;;;;;;;;;4975293;28;20263;-89
2021/11/15 07:41:12;;;;;;;23.00;19.33;;;;;;;;;;4975041;28;20201;-90
2021/11/15 07:43:39;;;;;;;21.17;18.70;;;;;;;;;;4974854;28;20229;-90
2021/11/15 07:46:07;;;;;;;20.50;18.30;;;;;;;;;;4974989;28;20220;-90
2021/11/15 07:48:36;;;;;;;25.47;18.33;;;;;;;;;;4975010;28;20280;-90
2021/11/15 07:51:03;;;;;;;22.50;19.47;;;;;;;;;;4974713;28;20197;-90
2021/11/15 07:53:35;;;;;;;22.80;19.10;;;;;;;;;;4974747;28;20288;-90
2021/11/15 07:56:03;;;;;;;21.27;18.97;;;;;;;;;;4974966;28;20654;-90
2021/11/15 07:58:30;;;;;;;22.37;18.37;;;;;;;;;;4975054;28;20215;-89
2021/11/15 08:00:58;;;;;;;21.57;19.07;;;;;;;;;;4974671;28;20756;-90
2021/11/15 08:03:25;;;;;;;19.37;17.33;;;;;;;;;;4974902;28;20197;-90
2021/11/15 08:05:54;;;;;;;23.70;19.10;;;;;;;;;;4974634;28;20205;-90
2021/11/15 08:08:22;;;;;;;24.03;17.03;;;;;;;;;;4974461;28;20236;-89
2021/11/15 08:10:51;;;;;;;19.37;17.23;;;;;;;;;;4974489;28;20239;-89
2021/11/15 08:13:18;;;;;;;20.07;17.67;;;;;;;;;;4974484;28;20260;-90
2021/11/15 08:15:46;;;;;;;22.03;19.20;;;;;;;;;;4974793;28;20562;-90
2021/11/15 08:18:13;;;;;;;20.60;17.80;;;;;;;;;;4974495;28;20201;-90
2021/11/15 08:20:41;;;;;;;20.40;18.27;;;;;;;;;;4974664;28;20729;-89
2021/11/15 08:23:14;;;;;;;21.87;19.53;;;;;;;;;;4974486;28;20300;-90
2021/11/15 08:26:26;;;;;;;18.10;16.13;;;;;;;;;;4974237;28;20300;-90
2021/11/15 08:28:53;;;;;;;22.20;16.37;;;;;;;;;;4974533;28;20619;-90
2021/11/15 08:31:22;;;;;;;18.90;17.00;;;;;;;;;;4974181;28;20255;-90
2021/11/15 08:33:50;;;;;;;18.60;16.43;;;;;;;;;;4974391;28;20197;-90
2021/11/15 08:36:17;;;;;;;20.27;17.87;;;;;;;;;;4974455;28;20256;-89
2021/11/15 08:38:52;;;;;;;17.90;16.00;;;;;;;;;;4974128;28;20212;-89
2021/11/15 08:41:22;;;;;;;17.87;16.00;;;;;;;;;;4974208;28;20192;-90
2021/11/15 08:43:49;;;;;;;16.57;14.77;;;;;;;;;;4973504;28;20193;-90
2021/11/15 08:46:19;;;;;;;18.87;16.87;;;;;;;;;;4974263;28;20200;-90
2021/11/15 08:48:47;;;;;;;15.67;14.07;;;;;;;;;;4974297;28;20236;-90
2021/11/15 08:51:16;;;;;;;18.30;15.60;;;;;;;;;;4974207;28;20204;-90
2021/11/15 08:53:43;;;;;;;20.03;15.93;;;;;;;;;;4973942;28;20204;-90
2021/11/15 08:56:12;;;;;;;15.93;14.27;;;;;;;;;;4974181;28;20208;-89
2021/11/15 08:58:40;;;;;;;16.60;14.97;;;;;;;;;;4974022;28;20196;-90
2021/11/15 09:01:08;;;;;;;14.20;12.80;;;;;;;;;;4973883;28;20292;-90
2021/11/15 09:03:38;;;;;;;15.93;13.80;;;;;;;;;;4973945;28;20256;-91
2021/11/15 09:06:06;;;;;;;19.40;16.40;;;;;;;;;;4973837;28;20193;-90
2021/11/15 09:08:33;;;;;;;20.07;16.67;;;;;;;;;;4973831;28;20252;-88
2021/11/15 09:11:01;;;;;;;18.33;16.43;;;;;;;;;;4973847;28;20291;-90
2021/11/15 09:13:30;;;;;;;15.73;14.10;;;;;;;;;;4974074;28;20236;-91
2021/11/15 09:15:57;;;;;;;15.00;13.43;;;;;;;;;;4973810;28;20212;-90
2021/11/15 09:18:25;;;;;;;14.97;13.07;;;;;;;;;;4973751;28;20249;-90
2021/11/15 09:20:53;;;;;;;15.33;13.20;;;;;;;;;;4973971;28;20205;-91
2021/11/15 09:23:20;;;;;;;15.87;13.90;;;;;;;;;;4973715;28;20201;-90
2021/11/15 09:25:47;;;;;;;17.93;14.97;;;;;;;;;;4973586;28;20225;-90
2021/11/15 09:28:15;;;;;;;16.40;14.60;;;;;;;;;;4973571;28;20201;-90
2021/11/15 09:30:45;;;;;;;20.47;13.33;;;;;;;;;;4973784;28;20677;-90
2021/11/15 09:33:12;;;;;;;24.13;16.80;;;;;;;;;;4973921;28;20603;-90
2021/11/15 09:35:44;;;;;;;21.80;17.83;;;;;;;;;;4974038;28;20197;-90
2021/11/15 09:38:11;;;;;;;18.73;14.23;;;;;;;;;;4973804;28;20717;-90
2021/11/15 09:40:38;;;;;;;18.80;14.17;;;;;;;;;;4973816;28;20642;-90
2021/11/15 09:43:06;;;;;;;30.07;21.17;;;;;;;;;;4973931;28;20676;-90
2021/11/15 09:45:33;;;;;;;21.17;18.87;;;;;;;;;;4973376;28;20320;-90
2021/11/15 09:48:02;;;;;;;26.70;18.80;;;;;;;;;;4973702;28;20201;-90
2021/11/15 09:50:29;;;;;;;21.50;18.73;;;;;;;;;;4973432;28;20691;-90
2021/11/15 09:52:57;;;;;;;19.40;16.83;;;;;;;;;;4973726;28;20608;-90
2021/11/15 09:55:24;;;;;;;23.37;19.73;;;;;;;;;;4974460;28;20666;-90
2021/11/15 09:57:51;;;;;;;17.30;15.43;;;;;;;;;;4976947;28;20201;-91
2021/11/15 10:00:22;;;;;;;18.53;16.60;;;;;;;;;;4977016;28;20319;-90
2021/11/15 10:02:50;;;;;;;16.77;15.03;;;;;;;;;;4977202;28;20273;-91
2021/11/15 10:05:19;;;;;;;25.67;16.60;;;;;;;;;;4977087;28;20620;-90
2021/11/15 10:07:49;;;;;;;29.77;20.03;;;;;;;;;;4976765;28;20243;-92
2021/11/15 10:10:28;;;;;;;14.80;12.43;;;;;;;;;;4976874;28;20197;-90
2021/11/15 10:13:20;;;;;;;21.27;16.23;;;;;;;;;;4977281;28;20287;-90
2021/11/15 10:15:51;;;;;;;18.90;15.47;;;;;;;;;;4977261;28;20284;-90
2021/11/15 10:18:31;;;;;;;18.70;15.33;;;;;;;;;;4976917;28;20579;-90
2021/11/15 10:21:02;;;;;;;13.73;12.33;;;;;;;;;;4976487;28;20193;-91
2021/11/15 10:23:32;;;;;;;12.13;9.37;;;;;;;;;;4976539;28;20276;-90
2021/11/15 10:26:02;;;;;;;11.80;10.47;;;;;;;;;;4976627;28;20271;-91
2021/11/15 10:28:31;;;;;;;15.03;13.53;;;;;;;;;;4976651;28;20201;-90
2021/11/15 10:30:59;;;;;;;13.63;11.13;;;;;;;;;;4976357;28;20205;-90
2021/11/15 10:33:37;;;;;;;15.67;12.97;;;;;;;;;;4976601;28;20193;-90
2021/11/15 10:36:06;;;;;;;22.90;17.13;;;;;;;;;;4976243;28;20196;-90
2021/11/15 10:38:47;;;;;;;21.07;16.43;;;;;;;;;;4976225;28;20203;-90
2021/11/15 10:41:17;;;;;;;18.43;14.93;;;;;;;;;;4976247;28;20716;-90
2021/11/15 10:43:45;;;;;;;15.90;12.33;;;;;;;;;;4976071;28;20213;-90
2021/11/15 10:46:33;;;;;;;12.67;11.03;;;;;;;;;;4976087;28;20254;-90
2021/11/15 10:49:01;;;;;;;14.57;11.23;;;;;;;;;;4976130;28;20197;-90
2021/11/15 10:51:49;;;;;;;13.90;12.00;;;;;;;;;;4976188;28;20244;-91
2021/11/15 10:54:32;;;;;;;51.30;29.67;;;;;;;;;;4976069;28;20228;-90
2021/11/15 10:57:17;;;;;;;41.33;27.93;;;;;;;;;;4975941;28;20228;-90
2021/11/15 10:59:44;;;;;;;63.03;36.33;;;;;;;;;;4975794;28;20233;-90
2021/11/15 11:02:26;;;;;;;24.60;16.67;;;;;;;;;;4975794;28;20211;-91
2021/11/15 11:05:07;;;;;;;21.70;17.60;;;;;;;;;;4975774;28;20252;-90
2021/11/15 11:07:36;;;;;;;12.53;10.10;;;;;;;;;;4975104;28;20685;-90
2021/11/15 11:10:04;;;;;;;18.10;14.43;;;;;;;;;;4976071;28;20227;-91
2021/11/15 11:12:35;;;;;;;20.93;14.47;;;;;;;;;;4975906;28;20220;-91
2021/11/15 11:15:25;;;;;;;23.97;15.67;;;;;;;;;;4975913;28;20197;-91
2021/11/15 11:18:02;;;;;;;11.57;8.10;;;;;;;;;;4975730;28;20190;-90
2021/11/15 11:20:37;;;;;;;13.33;10.07;;;;;;;;;;4975497;28;20200;-90
2021/11/15 11:23:33;;;;;;;16.43;11.93;;;;;;;;;;4975396;28;20199;-91
2021/11/15 11:26:11;;;;;;;8.63;7.83;;;;;;;;;;4975385;28;20243;-90
2021/11/15 11:28:41;;;;;;;9.17;8.23;;;;;;;;;;4975540;28;20205;-90
2021/11/15 11:31:10;;;;;;;11.10;8.37;;;;;;;;;;4975357;28;20229;-91
2021/11/15 11:33:37;;;;;;;9.83;6.70;;;;;;;;;;4975479;28;20204;-91
2021/11/15 11:36:07;;;;;;;7.83;6.40;;;;;;;;;;4975167;28;20243;-90
2021/11/15 11:38:37;;;;;;;7.10;6.40;;;;;;;;;;4975288;28;20211;-90
2021/11/15 11:41:04;;;;;;;7.73;6.93;;;;;;;;;;4975537;28;20225;-91
2021/11/15 11:43:32;;;;;;;9.23;6.93;;;;;;;;;;4975077;28;20196;-91
2021/11/15 11:46:00;;;;;;;10.53;8.07;;;;;;;;;;4975115;28;20252;-91
2021/11/15 11:48:28;;;;;;;11.83;10.63;;;;;;;;;;4975251;28;20325;-91
2021/11/15 11:50:57;;;;;;;13.73;12.33;;;;;;;;;;4975052;28;20201;-91
2021/11/15 11:53:26;;;;;;;9.33;8.17;;;;;;;;;;4974806;28;20765;-91
2021/11/15 11:55:55;;;;;;;8.13;7.33;;;;;;;;;;4974749;28;20296;-90
2021/11/15 11:58:28;;;;;;;9.30;7.47;;;;;;;;;;4974778;28;20285;-91
2021/11/15 12:00:57;;;;;;;11.73;9.80;;;;;;;;;;4975073;28;20634;-91
2021/11/15 12:03:24;;;;;;;8.07;6.63;;;;;;;;;;4974825;28;20284;-91
2021/11/15 12:05:52;;;;;;;6.07;5.47;;;;;;;;;;4974656;28;20235;-91
2021/11/15 12:08:20;;;;;;;9.50;7.23;;;;;;;;;;4974411;28;20238;-91
2021/11/15 12:10:55;;;;;;;8.23;7.17;;;;;;;;;;4974524;28;20197;-90
2021/11/15 12:13:24;;;;;;;6.67;6.03;;;;;;;;;;4974625;28;20188;-91
2021/11/15 12:15:58;;;;;;;11.20;10.10;;;;;;;;;;4974754;28;20279;-90
2021/11/15 12:18:27;;;;;;;9.43;8.07;;;;;;;;;;4973944;28;20197;-91
2021/11/15 12:21:17;;;;;;;6.07;5.47;;;;;;;;;;4974367;28;20205;-91
2021/11/15 12:24:06;;;;;;;8.80;7.50;;;;;;;;;;4974589;28;20736;-90
2021/11/15 12:26:42;;;;;;;29.83;20.03;;;;;;;;;;4974521;28;20308;-89
2021/11/15 12:29:25;;;;;;;41.00;23.87;;;;;;;;;;4974726;28;20203;-90
2021/11/15 12:31:53;;;;;;;32.30;21.90;;;;;;;;;;4974320;28;20256;-90
2021/11/15 12:34:22;;;;;;;22.77;14.77;;;;;;;;;;4974293;28;20715;-91
2021/11/15 12:36:53;;;;;;;16.10;13.87;;;;;;;;;;4974308;28;20297;-92
2021/11/15 12:39:23;;;;;;;8.27;5.43;;;;;;;;;;4974401;28;20197;-90
2021/11/15 12:41:51;;;;;;;9.40;6.70;;;;;;;;;;4974113;28;20251;-91
2021/11/15 12:44:31;;;;;;;8.03;6.73;;;;;;;;;;4974860;28;20662;-91
2021/11/15 12:47:02;;;;;;;6.23;5.63;;;;;;;;;;4974315;28;20264;-91
2021/11/15 12:49:36;;;;;;;13.97;10.83;;;;;;;;;;4974072;28;20189;-91
2021/11/15 12:52:31;;;;;;;9.77;8.57;;;;;;;;;;4974524;28;20228;-90
2021/11/15 12:55:01;;;;;;;6.63;5.90;;;;;;;;;;4929738;28;20691;-90
2021/11/15 12:57:35;;;;;;;10.70;6.63;;;;;;;;;;4974040;28;20193;-90
2021/11/15 13:00:08;;;;;;;7.33;5.77;;;;;;;;;;4974305;28;20193;-91
2021/11/15 13:02:36;;;;;;;10.97;8.43;;;;;;;;;;4974005;28;20196;-90
2021/11/15 13:05:05;;;;;;;11.50;9.07;;;;;;;;;;4973842;28;20770;-91
2021/11/15 13:07:32;;;;;;;17.67;8.40;;;;;;;;;;4973838;28;20614;-90
2021/11/15 13:10:00;;;;;;;5.57;5.03;;;;;;;;;;4973989;28;20288;-91
2021/11/15 13:12:30;;;;;;;13.30;8.47;;;;;;;;;;4974058;28;20204;-91
2021/11/15 13:14:59;;;;;;;8.57;6.67;;;;;;;;;;4973850;28;20190;-91
2021/11/15 13:17:28;;;;;;;7.07;5.40;;;;;;;;;;4974211;28;20207;-91
2021/11/15 13:19:56;;;;;;;6.33;5.80;;;;;;;;;;4973940;28;20240;-90
2021/11/15 13:22:26;;;;;;;5.33;4.83;;;;;;;;;;4973638;28;20201;-90
2021/11/15 13:24:53;;;;;;;6.90;4.87;;;;;;;;;;4973721;28;20201;-92
2021/11/15 13:27:22;;;;;;;6.90;6.20;;;;;;;;;;4973539;28;20229;-91
2021/11/15 13:29:50;;;;;;;5.97;5.23;;;;;;;;;;4973771;28;20241;-90
2021/11/15 13:32:18;;;;;;;22.40;15.63;;;;;;;;;;4977482;28;20207;-90
2021/11/15 13:34:48;;;;;;;32.17;21.27;;;;;;;;;;4977650;28;20639;-90
2021/11/15 13:37:15;;;;;;;36.60;23.97;;;;;;;;;;4977880;28;20229;-90
2021/11/15 13:39:44;;;;;;;16.40;11.50;;;;;;;;;;4977331;28;20252;-91
2021/11/15 13:42:11;;;;;;;8.50;7.07;;;;;;;;;;4977816;28;20269;-90
2021/11/15 13:44:39;;;;;;;5.67;5.17;;;;;;;;;;4977771;28;20201;-91
2021/11/15 13:47:07;;;;;;;4.67;3.87;;;;;;;;;;4977214;28;20228;-91
2021/11/15 13:49:35;;;;;;;6.70;3.67;;;;;;;;;;4977136;28;20764;-92
2021/11/15 13:52:04;;;;;;;5.33;4.83;;;;;;;;;;4976781;28;20251;-90
2021/11/15 13:54:36;;;;;;;4.67;4.00;;;;;;;;;;4977094;28;20209;-91
2021/11/15 13:57:04;;;;;;;5.00;4.53;;;;;;;;;;4977089;28;20186;-91
2021/11/15 13:59:31;;;;;;;4.23;3.87;;;;;;;;;;4977149;28;20207;-92
2021/11/15 14:01:59;;;;;;;4.40;4.00;;;;;;;;;;4977135;28;20220;-91
2021/11/15 14:04:26;;;;;;;4.17;3.83;;;;;;;;;;4977146;28;20193;-91
2021/11/15 14:06:54;;;;;;;6.43;5.33;;;;;;;;;;4977003;28;20316;-91
2021/11/15 14:09:23;;;;;;;13.63;9.37;;;;;;;;;;4977111;28;20201;-91
2021/11/15 14:11:50;;;;;;;8.37;5.67;;;;;;;;;;4976865;28;20208;-91
2021/11/15 14:14:18;;;;;;;5.63;4.77;;;;;;;;;;4976886;28;20204;-91
2021/11/15 14:16:46;;;;;;;5.73;5.10;;;;;;;;;;4976608;28;20291;-91
2021/11/15 14:19:13;;;;;;;5.90;5.40;;;;;;;;;;4976620;28;20205;-91
2021/11/15 14:21:40;;;;;;;7.27;4.37;;;;;;;;;;4976544;28;20287;-91
2021/11/15 14:24:08;;;;;;;11.23;7.30;;;;;;;;;;4976708;28;20602;-91
2021/11/15 14:26:37;;;;;;;4.50;4.10;;;;;;;;;;4976485;28;20225;-92
2021/11/15 14:29:04;;;;;;;5.83;4.90;;;;;;;;;;4976417;28;20240;-90
2021/11/15 14:31:32;;;;;;;6.50;4.80;;;;;;;;;;4976777;28;20602;-91
2021/11/15 14:33:59;;;;;;;6.37;5.00;;;;;;;;;;4976598;28;20200;-90